createdAt,value
2019-02-24T00:02:09.992Z,40.41
2019-02-24T00:04:43.752Z,40.02
2019-02-24T00:07:16.182Z,40.98
2019-02-24T00:09:48.358Z,40.59
2019-02-24T00:12:20.670Z,40.85
2019-02-24T00:14:52.548Z,40.66
2019-02-24T00:17:24.421Z,40.26
2019-02-24T00:19:56.184Z,40.75
2019-02-24T00:22:28.539Z,40.66
2019-02-24T00:25:00.404Z,40.70
2019-02-24T00:27:33.558Z,40.44
2019-02-24T00:30:05.528Z,40.61
2019-02-24T00:32:37.272Z,40.04
2019-02-24T00:35:09.730Z,39.71
2019-02-24T00:37:41.554Z,39.49
2019-02-24T00:40:15.067Z,40.02
2019-02-24T00:42:46.975Z,39.49
2019-02-24T00:45:18.809Z,40.37
2019-02-24T00:47:50.647Z,40.38
2019-02-24T00:50:22.565Z,39.73
2019-02-24T00:52:54.554Z,40.44
2019-02-24T00:55:26.320Z,39.71
2019-02-24T00:57:58.087Z,39.84
2019-02-24T01:00:29.927Z,40.78
2019-02-24T01:03:02.297Z,41.25
2019-02-24T01:05:34.463Z,41.96
2019-02-24T01:08:06.446Z,42.02
2019-02-24T01:10:38.474Z,42.66
2019-02-24T01:13:10.551Z,42.72
2019-02-24T01:15:42.650Z,42.30
2019-02-24T01:18:15.536Z,42.88
2019-02-24T01:20:48.260Z,43.31
2019-02-24T01:23:20.101Z,43.20
2019-02-24T01:25:51.947Z,42.72
2019-02-24T01:28:25.517Z,42.11
2019-02-24T01:30:57.412Z,42.21
2019-02-24T01:33:29.173Z,42.68
2019-02-24T01:36:00.932Z,42.18
2019-02-24T01:38:32.697Z,42.05
2019-02-24T01:41:04.959Z,41.88
2019-02-24T01:43:37.250Z,41.71
2019-02-24T01:46:10.409Z,42.53
2019-02-24T01:48:42.241Z,42.45
2019-02-24T01:51:14.070Z,42.18
2019-02-24T01:53:45.897Z,42.14
2019-02-24T01:56:17.735Z,42.07
2019-02-24T01:58:49.702Z,42.11
2019-02-24T02:01:22.071Z,42.24
2019-02-24T02:03:54.383Z,42.59
2019-02-24T02:06:26.668Z,43.40
2019-02-24T02:08:58.775Z,42.96
2019-02-24T02:11:30.694Z,42.58
2019-02-24T02:14:02.448Z,42.17
2019-02-24T02:16:35.098Z,41.73
2019-02-24T02:19:07.276Z,42.20
2019-02-24T02:21:39.102Z,42.62
2019-02-24T02:24:11.020Z,42.70
2019-02-24T02:26:42.841Z,42.05
2019-02-24T02:29:14.874Z,41.63
2019-02-24T02:31:46.710Z,42.19
2019-02-24T02:34:18.627Z,42.44
2019-02-24T02:36:50.652Z,43.05
2019-02-24T02:39:22.798Z,42.61
2019-02-24T02:41:55.110Z,42.43
2019-02-24T02:44:26.915Z,41.59
2019-02-24T02:46:58.717Z,41.81
2019-02-24T02:49:30.701Z,41.90
2019-02-24T02:52:02.531Z,41.97
2019-02-24T02:54:34.383Z,42.57
2019-02-24T02:57:06.530Z,42.43
2019-02-24T02:59:39.180Z,42.50
2019-02-24T03:02:11.008Z,42.19
2019-02-24T03:04:42.839Z,42.60
2019-02-24T03:07:22.879Z,42.81
2019-02-24T03:09:54.690Z,42.81
2019-02-24T03:12:26.635Z,42.22
2019-02-24T03:14:58.794Z,42.43
2019-02-24T03:17:30.656Z,42.71
2019-02-24T03:20:02.831Z,42.68
2019-02-24T03:22:34.760Z,42.62
2019-02-24T03:25:06.782Z,42.65
2019-02-24T03:27:38.715Z,43.63
2019-02-24T03:30:10.800Z,44.92
2019-02-24T03:32:42.578Z,45.20
2019-02-24T03:35:14.667Z,45.79
2019-02-24T03:37:46.606Z,45.50
2019-02-24T03:40:18.828Z,45.19
2019-02-24T03:42:50.708Z,44.45
2019-02-24T03:45:22.681Z,44.66
2019-02-24T03:47:54.621Z,44.20
2019-02-24T03:50:26.856Z,44.41
2019-02-24T03:52:58.787Z,44.66
2019-02-24T03:55:31.012Z,44.71
2019-02-24T03:58:02.942Z,45.74
2019-02-24T04:00:34.889Z,46.34
2019-02-24T04:03:08.993Z,46.79
2019-02-24T04:05:40.872Z,46.80
2019-02-24T04:08:13.081Z,46.05
2019-02-24T04:10:45.388Z,46.12
2019-02-24T04:13:17.252Z,46.11
2019-02-24T04:15:49.653Z,46.25
2019-02-24T04:18:21.524Z,46.26
2019-02-24T04:20:53.392Z,46.78
2019-02-24T04:23:25.693Z,47.02
2019-02-24T04:25:57.672Z,47.27
2019-02-24T04:28:29.549Z,48.05
2019-02-24T04:31:01.345Z,48.52
2019-02-24T04:33:33.294Z,48.65
2019-02-24T04:36:05.511Z,48.68
2019-02-24T04:38:37.367Z,48.62
2019-02-24T04:41:09.847Z,49.00
2019-02-24T04:43:41.630Z,49.02
2019-02-24T04:46:13.503Z,48.91
2019-02-24T04:48:45.369Z,48.90
2019-02-24T04:51:17.307Z,49.08
2019-02-24T04:53:49.087Z,49.51
2019-02-24T04:56:21.010Z,49.70
2019-02-24T04:58:52.891Z,49.90
2019-02-24T05:01:25.829Z,49.86
2019-02-24T05:03:58.671Z,50.42
2019-02-24T05:06:30.457Z,50.55
2019-02-24T05:09:02.397Z,50.51
2019-02-24T05:11:35.723Z,50.69
2019-02-24T05:14:08.006Z,50.54
2019-02-24T05:16:39.944Z,50.36
2019-02-24T05:19:11.819Z,50.38
2019-02-24T05:21:43.953Z,50.27
2019-02-24T05:24:15.824Z,50.18
2019-02-24T05:26:48.117Z,50.07
2019-02-24T05:29:20.561Z,49.75
2019-02-24T05:31:52.613Z,49.96
2019-02-24T05:34:24.417Z,50.01
2019-02-24T05:36:56.587Z,49.61
2019-02-24T05:39:28.473Z,49.33
2019-02-24T05:42:00.329Z,49.62
2019-02-24T05:44:32.193Z,49.56
2019-02-24T05:47:04.049Z,50.18
2019-02-24T05:49:35.903Z,50.12
2019-02-24T05:52:07.719Z,50.14
2019-02-24T05:54:40.658Z,49.89
2019-02-24T05:57:12.529Z,49.61
2019-02-24T05:59:44.399Z,49.80
2019-02-24T06:02:16.170Z,49.43
2019-02-24T06:04:48.251Z,49.97
2019-02-24T06:07:21.076Z,49.90
2019-02-24T06:09:52.945Z,49.48
2019-02-24T06:12:24.904Z,49.31
2019-02-24T06:14:56.679Z,49.29
2019-02-24T06:17:28.541Z,49.49
2019-02-24T06:20:00.388Z,50.27
2019-02-24T06:22:32.522Z,50.10
2019-02-24T06:25:04.629Z,49.62
2019-02-24T06:27:36.506Z,49.33
2019-02-24T06:30:08.898Z,49.17
2019-02-24T06:32:40.772Z,48.83
2019-02-24T06:35:12.718Z,49.16
2019-02-24T06:37:44.506Z,48.43
2019-02-24T06:40:16.450Z,48.06
2019-02-24T06:42:48.635Z,48.37
2019-02-24T06:45:20.844Z,48.31
2019-02-24T06:47:52.750Z,48.61
2019-02-24T06:50:34.883Z,49.14
2019-02-24T06:52:59.274Z,48.77
2019-02-24T06:55:31.137Z,49.41
2019-02-24T06:58:02.992Z,49.33
2019-02-24T07:00:34.936Z,49.45
2019-02-24T07:03:08.576Z,49.37
2019-02-24T07:05:40.446Z,49.34
2019-02-24T07:08:12.294Z,49.71
2019-02-24T07:10:44.249Z,49.61
2019-02-24T07:13:16.201Z,50.19
2019-02-24T07:15:48.089Z,50.18
2019-02-24T07:18:20.024Z,49.66
2019-02-24T07:20:51.896Z,49.84
2019-02-24T07:23:23.858Z,49.43
2019-02-24T07:25:55.737Z,49.55
2019-02-24T07:28:27.638Z,49.08
2019-02-24T07:30:59.762Z,49.46
2019-02-24T07:33:31.690Z,49.21
2019-02-24T07:36:03.559Z,48.24
2019-02-24T07:38:35.604Z,47.58
2019-02-24T07:41:07.550Z,46.24
2019-02-24T07:43:39.418Z,46.49
2019-02-24T07:46:11.352Z,46.91
2019-02-24T07:48:43.129Z,45.63
2019-02-24T07:51:15.180Z,46.65
2019-02-24T07:53:47.330Z,46.06
2019-02-24T07:56:19.192Z,46.30
2019-02-24T07:58:51.031Z,46.49
2019-02-24T08:01:22.827Z,46.42
2019-02-24T08:03:54.631Z,46.74
2019-02-24T08:06:26.512Z,46.65
2019-02-24T08:08:58.475Z,45.79
2019-02-24T08:11:30.436Z,46.03
2019-02-24T08:14:02.249Z,44.26
2019-02-24T08:16:35.096Z,44.34
2019-02-24T08:19:07.234Z,43.71
2019-02-24T08:21:39.111Z,43.29
2019-02-24T08:24:11.001Z,43.03
2019-02-24T08:26:43.113Z,42.96
2019-02-24T08:29:14.990Z,43.21
2019-02-24T08:31:46.842Z,41.50
2019-02-24T08:34:18.719Z,39.31
2019-02-24T08:36:50.683Z,38.64
2019-02-24T08:39:22.658Z,38.57
2019-02-24T08:41:54.437Z,38.71
2019-02-24T08:44:26.378Z,38.84
2019-02-24T08:46:58.219Z,39.50
2019-02-24T08:49:30.074Z,40.18
2019-02-24T08:52:01.942Z,39.75
2019-02-24T08:54:34.001Z,39.40
2019-02-24T08:57:05.990Z,38.52
2019-02-24T08:59:38.748Z,37.83
2019-02-24T09:02:10.684Z,36.62
2019-02-24T09:04:42.530Z,37.23
2019-02-24T09:07:14.314Z,35.58
2019-02-24T09:09:46.117Z,36.10
2019-02-24T09:12:18.035Z,35.81
2019-02-24T09:14:49.877Z,35.96
2019-02-24T09:17:22.032Z,36.56
2019-02-24T09:19:53.978Z,36.46
2019-02-24T09:22:25.836Z,36.16
2019-02-24T09:24:57.984Z,35.61
2019-02-24T09:27:29.925Z,37.10
2019-02-24T09:30:01.761Z,35.15
2019-02-24T09:32:33.749Z,34.24
2019-02-24T09:35:06.205Z,35.22
2019-02-24T09:37:38.120Z,34.72
2019-02-24T09:40:10.626Z,35.32
2019-02-24T09:42:42.480Z,35.73
2019-02-24T09:45:14.410Z,34.50
2019-02-24T09:47:47.188Z,34.42
2019-02-24T09:50:19.680Z,35.75
2019-02-24T09:52:51.591Z,35.30
2019-02-24T09:55:23.358Z,34.53
2019-02-24T09:57:55.468Z,34.17
2019-02-24T10:00:27.379Z,33.71
2019-02-24T10:02:59.378Z,34.11
2019-02-24T10:05:31.160Z,34.46
2019-02-24T10:08:03.372Z,32.54
2019-02-24T10:10:35.309Z,33.38
2019-02-24T10:13:08.130Z,34.41
2019-02-24T10:15:40.058Z,35.35
2019-02-24T10:18:11.833Z,34.73
2019-02-24T10:20:44.570Z,34.96
2019-02-24T10:23:16.414Z,35.60
2019-02-24T10:25:48.320Z,35.32
2019-02-24T10:28:20.192Z,35.95
2019-02-24T10:30:52.093Z,34.07
2019-02-24T10:33:23.930Z,33.75
2019-02-24T10:35:55.846Z,34.50
2019-02-24T10:38:27.621Z,34.30
2019-02-24T10:40:59.373Z,33.18
2019-02-24T10:43:31.136Z,33.34
2019-02-24T10:46:03.044Z,32.53
2019-02-24T10:48:34.885Z,32.81
2019-02-24T10:51:06.799Z,33.32
2019-02-24T10:53:38.552Z,34.10
2019-02-24T10:56:10.465Z,31.89
2019-02-24T10:58:43.597Z,32.80
2019-02-24T11:01:15.438Z,33.19
2019-02-24T11:03:47.271Z,33.07
2019-02-24T11:06:19.170Z,33.09
2019-02-24T11:08:50.936Z,33.07
2019-02-24T11:11:23.106Z,33.39
2019-02-24T11:13:55.193Z,32.59
2019-02-24T11:16:27.408Z,32.30
2019-02-24T11:18:59.241Z,32.33
2019-02-24T11:21:31.081Z,31.21
2019-02-24T11:24:02.998Z,31.69
2019-02-24T11:26:34.843Z,31.67
2019-02-24T11:29:06.942Z,32.00
2019-02-24T11:31:38.796Z,31.75
2019-02-24T11:34:10.558Z,31.99
2019-02-24T11:36:42.480Z,29.87
2019-02-24T11:39:14.333Z,30.85
2019-02-24T11:41:46.090Z,28.50
2019-02-24T11:44:18.182Z,27.73
2019-02-24T11:46:50.101Z,27.62
2019-02-24T11:49:24.010Z,29.12
2019-02-24T11:52:03.669Z,28.64
2019-02-24T11:54:29.298Z,29.47
2019-02-24T11:57:01.141Z,29.14
2019-02-24T11:59:33.037Z,30.27
2019-02-24T12:02:04.955Z,29.16
2019-02-24T12:04:37.686Z,31.04
2019-02-24T12:07:09.655Z,29.51
2019-02-24T12:09:46.955Z,32.38
2019-02-24T12:12:21.771Z,31.29
2019-02-24T12:14:55.199Z,30.71
2019-02-24T12:17:27.123Z,30.04
2019-02-24T12:19:59.602Z,31.88
2019-02-24T12:22:31.530Z,30.31
2019-02-24T12:25:03.367Z,30.09
2019-02-24T12:27:35.169Z,30.29
2019-02-24T12:30:08.526Z,29.74
2019-02-24T12:32:40.390Z,29.04
2019-02-24T12:35:12.305Z,29.59
2019-02-24T12:37:44.144Z,29.44
2019-02-24T12:40:16.103Z,28.37
2019-02-24T12:42:48.934Z,29.19
2019-02-24T12:45:20.767Z,28.44
2019-02-24T12:47:52.651Z,29.10
2019-02-24T12:50:24.611Z,28.69
2019-02-24T12:52:56.506Z,29.47
2019-02-24T12:55:28.266Z,30.12
2019-02-24T12:58:00.195Z,29.64
2019-02-24T13:00:32.115Z,29.11
2019-02-24T13:03:03.956Z,27.67
2019-02-24T13:05:36.291Z,28.15
2019-02-24T13:08:08.223Z,28.37
2019-02-24T13:10:41.113Z,28.67
2019-02-24T13:13:12.969Z,27.60
2019-02-24T13:15:45.069Z,29.55
2019-02-24T13:18:16.935Z,29.61
2019-02-24T13:20:48.850Z,29.07
2019-02-24T13:23:20.629Z,28.72
2019-02-24T13:25:52.465Z,29.12
2019-02-24T13:28:24.383Z,31.13
2019-02-24T13:30:56.223Z,29.09
2019-02-24T13:33:28.007Z,30.39
2019-02-24T13:35:59.930Z,27.12
2019-02-24T13:38:32.760Z,28.09
2019-02-24T13:41:04.602Z,28.29
2019-02-24T13:43:36.548Z,28.90
2019-02-24T13:46:09.611Z,24.62
2019-02-24T13:48:41.385Z,26.84
2019-02-24T13:51:13.302Z,26.24
2019-02-24T13:53:45.301Z,27.87
2019-02-24T13:56:17.100Z,28.27
2019-02-24T13:58:48.940Z,29.71
2019-02-24T14:01:20.854Z,25.59
2019-02-24T14:03:52.787Z,28.06
2019-02-24T14:06:24.813Z,26.04
2019-02-24T14:08:58.247Z,25.57
2019-02-24T14:11:30.108Z,24.55
2019-02-24T14:14:01.911Z,24.09
2019-02-24T14:16:33.680Z,26.05
2019-02-24T14:19:05.616Z,25.90
2019-02-24T14:21:37.709Z,28.59
2019-02-24T14:24:10.106Z,26.22
2019-02-24T14:26:49.287Z,24.43
2019-02-24T14:29:22.811Z,27.18
2019-02-24T14:31:54.597Z,28.87
2019-02-24T14:34:27.357Z,25.79
2019-02-24T14:36:59.598Z,26.67
2019-02-24T14:39:31.505Z,24.43
2019-02-24T14:42:04.090Z,26.34
2019-02-24T14:44:37.010Z,24.17
2019-02-24T14:47:10.053Z,25.95
2019-02-24T14:49:41.916Z,23.66
2019-02-24T14:52:13.763Z,22.18
2019-02-24T14:54:45.806Z,23.38
2019-02-24T14:57:17.734Z,25.12
2019-02-24T14:59:49.945Z,21.22
2019-02-24T15:02:21.770Z,26.53
2019-02-24T15:04:53.791Z,24.41
2019-02-24T15:07:25.925Z,23.16
2019-02-24T15:09:57.858Z,25.05
2019-02-24T15:12:29.713Z,27.00
2019-02-24T15:15:01.771Z,22.36
2019-02-24T15:17:33.688Z,22.62
2019-02-24T15:20:06.658Z,28.89
2019-02-24T15:22:38.569Z,20.28
2019-02-24T15:25:12.961Z,20.96
2019-02-24T15:27:45.869Z,20.51
2019-02-24T15:30:28.114Z,22.72
2019-02-24T15:32:59.954Z,22.97
2019-02-24T15:35:32.126Z,21.11
2019-02-24T15:38:04.011Z,21.01
2019-02-24T15:40:35.915Z,21.39
2019-02-24T15:43:09.207Z,20.32
2019-02-24T15:45:41.375Z,20.77
2019-02-24T15:48:13.543Z,20.80
2019-02-24T15:50:46.363Z,20.41
2019-02-24T15:53:18.125Z,20.79
2019-02-24T15:55:50.068Z,21.96
2019-02-24T15:58:21.911Z,22.64
2019-02-24T16:00:53.690Z,24.80
2019-02-24T16:03:25.524Z,24.35
2019-02-24T16:05:57.372Z,24.88
2019-02-24T16:08:29.562Z,25.17
2019-02-24T16:11:01.336Z,27.65
2019-02-24T16:13:33.114Z,24.71
2019-02-24T16:16:04.951Z,27.74
2019-02-24T16:18:36.811Z,25.93
2019-02-24T16:21:09.598Z,26.09
2019-02-24T16:23:41.515Z,27.89
2019-02-24T16:26:13.448Z,26.45
2019-02-24T16:28:45.544Z,26.98
2019-02-24T16:31:17.649Z,26.50
2019-02-24T16:33:50.379Z,26.38
2019-02-24T16:36:22.374Z,25.92
2019-02-24T16:38:54.216Z,26.63
2019-02-24T16:41:26.063Z,26.90
2019-02-24T16:43:58.233Z,27.58
2019-02-24T16:46:30.171Z,27.51
2019-02-24T16:49:03.515Z,28.00
2019-02-24T16:51:35.530Z,28.19
2019-02-24T16:54:07.472Z,28.93
2019-02-24T16:56:39.324Z,28.69
2019-02-24T16:59:11.726Z,28.65
2019-02-24T17:01:43.669Z,29.10
2019-02-24T17:04:15.922Z,28.37
2019-02-24T17:06:47.956Z,29.61
2019-02-24T17:09:19.869Z,30.66
2019-02-24T17:11:51.738Z,30.48
2019-02-24T17:14:24.869Z,30.54
2019-02-24T17:17:01.515Z,31.36
2019-02-24T17:19:30.319Z,30.89
2019-02-24T17:22:02.152Z,31.64
2019-02-24T17:24:34.791Z,30.73
2019-02-24T17:27:07.090Z,30.90
2019-02-24T17:29:38.850Z,31.80
2019-02-24T17:32:11.480Z,32.58
2019-02-24T17:34:43.228Z,33.11
2019-02-24T17:37:19.967Z,33.26
2019-02-24T17:39:48.585Z,33.52
2019-02-24T17:42:20.503Z,35.17
2019-02-24T17:44:52.266Z,35.65
2019-02-24T17:47:24.102Z,35.16
2019-02-24T17:49:56.017Z,35.15
2019-02-24T17:52:27.800Z,35.39
2019-02-24T17:54:59.621Z,37.16
2019-02-24T17:57:31.469Z,35.84
2019-02-24T18:00:03.790Z,36.39
2019-02-24T18:02:35.896Z,35.84
2019-02-24T18:05:07.951Z,37.50
2019-02-24T18:07:40.114Z,37.29
2019-02-24T18:10:12.409Z,37.99
2019-02-24T18:12:44.331Z,37.74
2019-02-24T18:15:16.240Z,39.09
2019-02-24T18:17:48.249Z,38.30
2019-02-24T18:20:20.283Z,38.48
2019-02-24T18:22:52.207Z,39.32
2019-02-24T18:25:24.491Z,39.04
2019-02-24T18:27:56.313Z,39.92
2019-02-24T18:30:28.266Z,40.18
2019-02-24T18:33:00.191Z,40.14
2019-02-24T18:35:32.409Z,41.72
2019-02-24T18:38:04.335Z,42.28
2019-02-24T18:40:36.337Z,41.35
2019-02-24T18:43:11.479Z,41.63
2019-02-24T18:45:43.624Z,41.94
2019-02-24T18:48:15.557Z,41.55
2019-02-24T18:50:47.586Z,41.82
2019-02-24T18:53:19.507Z,42.26
2019-02-24T18:55:52.135Z,43.39
2019-02-24T18:58:24.318Z,43.96
2019-02-24T19:00:56.425Z,44.61
2019-02-24T19:03:28.347Z,45.50
2019-02-24T19:06:00.285Z,44.23
2019-02-24T19:08:32.186Z,44.38
2019-02-24T19:11:05.389Z,44.33
2019-02-24T19:13:37.580Z,43.90
2019-02-24T19:16:09.514Z,44.01
2019-02-24T19:18:41.370Z,45.00
2019-02-24T19:21:14.278Z,44.51
2019-02-24T19:23:46.478Z,44.69
2019-02-24T19:26:18.662Z,43.64
2019-02-24T19:28:51.321Z,44.16
2019-02-24T19:31:23.081Z,44.32
2019-02-24T19:33:54.941Z,44.98
2019-02-24T19:36:26.790Z,45.74
2019-02-24T19:38:58.775Z,45.54
2019-02-24T19:41:30.924Z,45.67
2019-02-24T19:44:02.957Z,46.32
2019-02-24T19:46:34.944Z,47.28
2019-02-24T19:49:06.916Z,47.08
2019-02-24T19:51:38.951Z,46.36
2019-02-24T19:54:11.648Z,47.41
2019-02-24T19:56:43.626Z,46.49
2019-02-24T19:59:16.555Z,46.18
2019-02-24T20:01:48.601Z,45.90
2019-02-24T20:04:20.913Z,45.42
2019-02-24T20:06:53.096Z,44.64
2019-02-24T20:09:25.088Z,46.35
2019-02-24T20:11:57.026Z,48.22
2019-02-24T20:14:29.426Z,49.52
2019-02-24T20:17:01.512Z,49.98
2019-02-24T20:19:33.927Z,49.59
2019-02-24T20:22:06.131Z,50.67
2019-02-24T20:24:38.486Z,51.37
2019-02-24T20:27:11.897Z,50.54
2019-02-24T20:29:44.268Z,49.76
2019-02-24T20:32:16.195Z,49.73
2019-02-24T20:34:48.422Z,50.39
2019-02-24T20:37:20.292Z,49.60
2019-02-24T20:39:52.274Z,49.22
2019-02-24T20:42:24.202Z,49.04
2019-02-24T20:44:56.046Z,48.53
2019-02-24T20:47:27.963Z,47.09
2019-02-24T20:49:59.892Z,47.05
2019-02-24T20:52:31.805Z,47.38
2019-02-24T20:55:03.763Z,47.96
2019-02-24T20:57:35.716Z,48.46
2019-02-24T21:00:14.136Z,49.64
2019-02-24T21:02:46.148Z,50.23
2019-02-24T21:05:18.297Z,51.01
2019-02-24T21:07:50.298Z,51.45
2019-02-24T21:10:22.568Z,52.29
2019-02-24T21:12:54.566Z,51.54
2019-02-24T21:15:26.532Z,51.76
2019-02-24T21:17:58.619Z,51.35
2019-02-24T21:20:31.785Z,51.53
2019-02-24T21:23:03.825Z,51.80
2019-02-24T21:25:35.821Z,52.49
2019-02-24T21:28:09.221Z,53.13
2019-02-24T21:30:41.207Z,53.37
2019-02-24T21:33:13.060Z,52.99
2019-02-24T21:35:46.568Z,53.56
2019-02-24T21:38:18.768Z,54.17
2019-02-24T21:40:50.901Z,53.60
2019-02-24T21:43:22.926Z,53.03
2019-02-24T21:45:54.905Z,53.00
2019-02-24T21:48:27.221Z,53.75
2019-02-24T21:50:59.660Z,51.29
2019-02-24T21:53:31.980Z,51.14
2019-02-24T21:56:04.402Z,51.26
2019-02-24T21:58:36.507Z,50.67
2019-02-24T22:01:08.488Z,51.47
2019-02-24T22:03:40.476Z,50.49
2019-02-24T22:06:12.430Z,51.08
2019-02-24T22:08:44.451Z,50.98
2019-02-24T22:11:16.674Z,51.23
2019-02-24T22:13:48.651Z,51.31
2019-02-24T22:16:20.521Z,51.80
2019-02-24T22:18:52.786Z,50.01
2019-02-24T22:21:24.765Z,48.60
2019-02-24T22:23:56.749Z,48.56
2019-02-24T22:26:28.843Z,48.66
2019-02-24T22:29:00.773Z,48.36
2019-02-24T22:31:32.872Z,49.14
2019-02-24T22:34:05.063Z,49.37
2019-02-24T22:36:37.079Z,50.21
2019-02-24T22:39:09.466Z,49.99
2019-02-24T22:41:41.772Z,50.32
2019-02-24T22:44:13.774Z,50.73
2019-02-24T22:46:45.943Z,50.43
2019-02-24T22:49:17.789Z,48.92
2019-02-24T22:51:49.636Z,48.11
2019-02-24T22:54:21.644Z,47.08
2019-02-24T22:56:53.773Z,48.22
2019-02-24T22:59:25.628Z,48.71
2019-02-24T23:01:57.805Z,49.96
2019-02-24T23:04:29.793Z,51.23
2019-02-24T23:07:01.824Z,49.44
2019-02-24T23:09:33.814Z,48.63
2019-02-24T23:12:06.054Z,48.82
2019-02-24T23:14:38.151Z,49.89
2019-02-24T23:17:10.270Z,49.67
2019-02-24T23:19:42.241Z,48.42
2019-02-24T23:22:14.383Z,48.78
2019-02-24T23:24:46.369Z,50.08
2019-02-24T23:27:18.421Z,52.56
2019-02-24T23:29:50.909Z,53.04
2019-02-24T23:32:22.934Z,52.93
2019-02-24T23:34:55.115Z,54.66
2019-02-24T23:37:27.189Z,54.32
2019-02-24T23:39:59.177Z,53.66
2019-02-24T23:42:31.136Z,54.86
2019-02-24T23:45:09.908Z,55.33
2019-02-24T23:47:37.683Z,55.54
2019-02-24T23:50:09.682Z,55.47
2019-02-24T23:52:41.755Z,55.31
2019-02-24T23:55:13.826Z,55.36
2019-02-24T23:57:45.876Z,55.32
